Time;durP1;ratioP1;P1;durP2;ratioP2;P2;SDS_P1;SDS_P2;PMS_P1;PMS_P2;Temp;Humidity;BMP_temperature;BMP_pressure;BME280_temperature;BME280_humidity;BME280_pressure;Samples;Min_cycle;Max_cycle;Signal;HPM_P1;HPM_P2
2022/07/05 00:00:03;;;;;;;;;;;14.70;99.90;;;;;;5056723;28;19940;-73
2022/07/05 00:02:29;;;;;;;;;;;14.80;99.90;;;;;;5075418;28;19958;-73
2022/07/05 00:04:54;;;;;;;;;;;14.70;99.90;;;;;;5056508;28;19904;-74
2022/07/05 00:07:20;;;;;;;;;;;14.70;99.90;;;;;;5075092;28;19908;-73
2022/07/05 00:09:47;;;;;;;;;;;14.70;99.90;;;;;;5056940;28;19910;-73
2022/07/05 00:12:15;;;;;;;;;;;14.70;99.90;;;;;;5074325;28;19913;-73
2022/07/05 00:14:41;;;;;;;;;;;14.70;99.90;;;;;;5074921;28;19911;-73
2022/07/05 00:17:07;;;;;;;;;;;14.70;99.90;;;;;;5074288;28;20355;-74
2022/07/05 00:19:33;;;;;;;;;;;14.60;99.90;;;;;;5074826;28;19904;-73
2022/07/05 00:21:59;;;;;;;;;;;14.60;99.90;;;;;;5074178;28;20366;-74
2022/07/05 00:24:25;;;;;;;;;;;14.70;99.90;;;;;;5074478;28;19904;-74
2022/07/05 00:26:50;;;;;;;;;;;14.70;99.90;;;;;;5074310;28;19904;-73
2022/07/05 00:29:16;;;;;;;;;;;14.80;99.90;;;;;;5074037;28;19905;-74
2022/07/05 00:31:42;;;;;;;;;;;14.70;99.90;;;;;;5074471;28;19958;-73
2022/07/05 00:34:07;;;;;;;;;;;14.70;99.90;;;;;;5073971;28;19927;-74
2022/07/05 00:36:33;;;;;;;;;;;14.70;99.90;;;;;;5074080;28;20397;-73
2022/07/05 00:38:58;;;;;;;;;;;14.70;99.90;;;;;;5052302;28;19962;-74
2022/07/05 00:41:24;;;;;;;;;;;14.70;99.90;;;;;;5054053;28;19991;-74
2022/07/05 00:43:53;;;;;;;;;;;14.60;99.90;;;;;;5054295;28;19905;-73
2022/07/05 00:46:19;;;;;;;;;;;14.70;99.90;;;;;;5053511;28;19905;-73
2022/07/05 00:48:44;;;;;;;;;;;14.70;99.90;;;;;;5053212;28;19912;-73
2022/07/05 00:51:10;;;;;;;;;;;14.70;99.90;;;;;;5053632;28;20411;-73
2022/07/05 00:53:36;;;;;;;;;;;14.70;99.90;;;;;;5054140;28;19919;-73
2022/07/05 00:56:02;;;;;;;;;;;14.70;99.90;;;;;;5053650;28;19904;-73
2022/07/05 00:58:28;;;;;;;;;;;14.60;99.90;;;;;;5054035;28;20267;-73
2022/07/05 01:00:54;;;;;;;;;;;14.60;99.90;;;;;;5054133;28;19911;-73
2022/07/05 01:03:19;;;;;;;;;;;14.60;99.90;;;;;;5053416;28;19905;-73
2022/07/05 01:05:45;;;;;;;;;;;14.70;99.90;;;;;;5053934;28;19904;-73
2022/07/05 01:08:11;;;;;;;;;;;14.70;99.90;;;;;;5052846;28;19936;-74
2022/07/05 01:10:37;;;;;;;;;;;14.60;99.90;;;;;;5053582;28;20275;-73
2022/07/05 01:13:03;;;;;;;;;;;14.60;99.90;;;;;;5053185;28;19975;-74
2022/07/05 01:15:29;;;;;;;;;;;14.70;99.90;;;;;;5053407;28;20305;-74
2022/07/05 01:17:54;;;;;;;;;;;14.70;99.90;;;;;;5053455;28;19905;-73
2022/07/05 01:20:20;;;;;;;;;;;14.60;99.90;;;;;;5053457;28;19912;-74
2022/07/05 01:22:50;;;;;;;;;;;14.70;99.90;;;;;;5053548;28;19911;-73
2022/07/05 01:25:16;;;;;;;;;;;14.60;99.90;;;;;;5053029;28;19905;-73
2022/07/05 01:27:42;;;;;;;;;;;14.50;99.90;;;;;;5053359;28;19934;-73
2022/07/05 01:30:08;;;;;;;;;;;14.50;99.90;;;;;;5052945;28;19915;-73
2022/07/05 01:32:33;;;;;;;;;;;14.40;99.90;;;;;;5053591;28;20390;-73
2022/07/05 01:34:59;;;;;;;;;;;14.40;99.90;;;;;;5051679;28;19909;-74
2022/07/05 01:37:24;;;;;;;;;;;14.40;99.90;;;;;;5052775;28;20279;-73
2022/07/05 01:39:51;;;;;;;;;;;14.40;99.90;;;;;;5068119;28;19923;-73
2022/07/05 01:42:16;;;;;;;;;;;14.40;99.90;;;;;;5072362;28;20377;-73
2022/07/05 01:44:42;;;;;;;;;;;14.30;99.90;;;;;;5073153;28;19989;-73
2022/07/05 01:47:08;;;;;;;;;;;14.30;99.90;;;;;;5072644;28;19908;-73
2022/07/05 01:49:35;;;;;;;;;;;14.30;99.90;;;;;;5072844;28;20374;-73
2022/07/05 01:52:06;;;;;;;;;;;14.20;99.90;;;;;;5072522;28;19912;-74
2022/07/05 01:54:32;;;;;;;;;;;14.30;99.90;;;;;;5073212;28;20343;-74
2022/07/05 01:56:58;;;;;;;;;;;14.30;99.90;;;;;;5073000;28;19915;-73
2022/07/05 01:59:23;;;;;;;;;;;14.30;99.90;;;;;;5072148;28;19909;-73
2022/07/05 02:01:49;;;;;;;;;;;14.30;99.90;;;;;;5055045;28;19911;-73
2022/07/05 02:04:16;;;;;;;;;;;14.30;99.90;;;;;;5054466;28;20424;-73
2022/07/05 02:06:42;;;;;;;;;;;14.30;99.90;;;;;;5072937;28;20381;-73
2022/07/05 02:09:07;;;;;;;;;;;14.20;99.90;;;;;;5072182;28;19904;-73
2022/07/05 02:11:33;;;;;;;;;;;14.30;99.90;;;;;;5073069;28;19959;-73
2022/07/05 02:13:59;;;;;;;;;;;14.30;99.90;;;;;;5072625;28;19904;-73
2022/07/05 02:16:25;;;;;;;;;;;14.30;99.90;;;;;;5072388;28;20027;-73
2022/07/05 02:18:51;;;;;;;;;;;14.30;99.90;;;;;;5072359;28;19957;-73
2022/07/05 02:21:16;;;;;;;;;;;14.30;99.90;;;;;;5070636;28;19908;-73
2022/07/05 02:23:43;;;;;;;;;;;14.30;99.90;;;;;;5073034;28;20347;-73
2022/07/05 02:26:08;;;;;;;;;;;14.30;99.90;;;;;;5055106;28;19962;-73
2022/07/05 02:28:34;;;;;;;;;;;14.30;99.90;;;;;;5054295;28;19940;-73
2022/07/05 02:30:59;;;;;;;;;;;14.30;99.90;;;;;;5072525;28;19908;-73
2022/07/05 02:33:25;;;;;;;;;;;14.20;99.90;;;;;;5053803;28;20275;-74
2022/07/05 02:35:50;;;;;;;;;;;14.20;99.90;;;;;;5072476;28;19961;-73
2022/07/05 02:38:16;;;;;;;;;;;14.20;99.90;;;;;;5071958;28;20240;-73
2022/07/05 02:40:41;;;;;;;;;;;14.20;99.90;;;;;;5072355;28;19904;-73
2022/07/05 02:43:07;;;;;;;;;;;14.20;99.90;;;;;;5072328;28;19904;-74
2022/07/05 02:45:32;;;;;;;;;;;14.20;99.90;;;;;;5072574;28;19905;-73
2022/07/05 02:47:58;;;;;;;;;;;14.10;99.90;;;;;;5072576;28;19914;-73
2022/07/05 02:50:24;;;;;;;;;;;14.20;99.90;;;;;;5072259;28;19908;-73
2022/07/05 02:52:49;;;;;;;;;;;14.10;99.90;;;;;;5072392;28;20003;-73
2022/07/05 02:55:15;;;;;;;;;;;14.20;99.90;;;;;;5071950;28;19905;-73
2022/07/05 02:57:40;;;;;;;;;;;14.20;99.90;;;;;;5072243;28;19904;-74
2022/07/05 03:00:06;;;;;;;;;;;14.20;99.90;;;;;;5071614;28;19904;-74
2022/07/05 03:02:32;;;;;;;;;;;14.10;99.90;;;;;;5072257;28;19911;-74
2022/07/05 03:04:57;;;;;;;;;;;14.10;99.90;;;;;;5054484;28;19957;-73
2022/07/05 03:07:23;;;;;;;;;;;14.10;99.90;;;;;;5072107;28;20059;-74
2022/07/05 03:09:48;;;;;;;;;;;14.10;99.90;;;;;;5072126;28;19911;-73
2022/07/05 03:12:14;;;;;;;;;;;14.20;99.90;;;;;;5074150;28;20003;-73
2022/07/05 03:14:40;;;;;;;;;;;14.20;99.90;;;;;;5076038;28;20274;-73
2022/07/05 03:17:05;;;;;;;;;;;14.20;99.90;;;;;;5075370;28;19957;-74
2022/07/05 03:19:31;;;;;;;;;;;14.20;99.90;;;;;;5075626;28;19904;-73
2022/07/05 03:21:56;;;;;;;;;;;14.10;99.90;;;;;;5075893;28;19905;-74
2022/07/05 03:24:22;;;;;;;;;;;14.10;99.90;;;;;;5075526;28;19904;-73
2022/07/05 03:26:47;;;;;;;;;;;14.10;99.90;;;;;;5075797;28;19908;-73
2022/07/05 03:29:13;;;;;;;;;;;14.10;99.90;;;;;;5075251;28;19904;-74
2022/07/05 03:31:39;;;;;;;;;;;14.10;99.90;;;;;;5075625;28;19904;-74
2022/07/05 03:34:04;;;;;;;;;;;14.10;99.90;;;;;;5075686;28;19995;-74
2022/07/05 03:36:30;;;;;;;;;;;14.20;99.90;;;;;;5075111;28;19904;-74
2022/07/05 03:38:56;;;;;;;;;;;14.10;99.90;;;;;;5075652;28;20015;-73
2022/07/05 03:41:21;;;;;;;;;;;14.10;99.90;;;;;;5075026;28;19904;-74
2022/07/05 03:43:47;;;;;;;;;;;14.10;99.90;;;;;;5075584;28;19904;-74
2022/07/05 03:46:12;;;;;;;;;;;14.20;99.90;;;;;;5074996;28;19905;-74
2022/07/05 03:48:38;;;;;;;;;;;14.10;99.90;;;;;;5075394;28;19908;-74
2022/07/05 03:51:04;;;;;;;;;;;14.10;99.90;;;;;;5075354;28;19929;-74
2022/07/05 03:53:29;;;;;;;;;;;14.10;99.90;;;;;;5056797;28;19920;-74
2022/07/05 03:55:55;;;;;;;;;;;14.00;99.90;;;;;;5075439;28;19905;-74
2022/07/05 03:58:20;;;;;;;;;;;14.10;99.90;;;;;;5074400;28;19912;-74
2022/07/05 04:00:46;;;;;;;;;;;14.10;99.90;;;;;;5057413;28;19953;-74
2022/07/05 04:03:12;;;;;;;;;;;14.00;99.90;;;;;;5074676;28;19904;-74
2022/07/05 04:05:39;;;;;;;;;;;14.00;99.90;;;;;;5075109;28;20386;-73
2022/07/05 04:08:04;;;;;;;;;;;14.10;99.90;;;;;;5075003;28;20342;-73
2022/07/05 04:10:30;;;;;;;;;;;14.10;99.90;;;;;;5056429;28;19949;-73
2022/07/05 04:12:56;;;;;;;;;;;14.10;99.90;;;;;;5074888;28;19912;-73
2022/07/05 04:15:21;;;;;;;;;;;14.10;99.90;;;;;;5074337;28;19904;-74
2022/07/05 04:17:51;;;;;;;;;;;14.10;99.90;;;;;;5074870;28;19904;-74
2022/07/05 04:20:17;;;;;;;;;;;14.10;99.90;;;;;;5074244;28;19904;-74
2022/07/05 04:22:42;;;;;;;;;;;14.20;99.90;;;;;;5074339;28;19904;-73
2022/07/05 04:25:17;;;;;;;;;;;14.20;99.90;;;;;;5074632;28;19915;-74
2022/07/05 04:27:46;;;;;;;;;;;14.20;99.90;;;;;;5074968;28;19904;-73
2022/07/05 04:30:12;;;;;;;;;;;14.20;99.90;;;;;;5074020;28;19911;-74
2022/07/05 04:32:37;;;;;;;;;;;14.20;99.90;;;;;;5074345;28;19912;-74
2022/07/05 04:35:03;;;;;;;;;;;14.30;99.90;;;;;;5074583;28;20354;-74
2022/07/05 04:37:29;;;;;;;;;;;14.30;99.90;;;;;;5073996;28;19966;-73
2022/07/05 04:39:54;;;;;;;;;;;14.30;99.90;;;;;;5074412;28;19916;-73
2022/07/05 04:42:20;;;;;;;;;;;14.30;99.90;;;;;;5073517;28;19904;-73
2022/07/05 04:44:45;;;;;;;;;;;14.30;99.90;;;;;;5074023;28;19905;-73
2022/07/05 04:47:11;;;;;;;;;;;14.30;99.90;;;;;;5073938;28;20418;-74
2022/07/05 04:49:37;;;;;;;;;;;14.30;99.90;;;;;;5073685;28;19904;-73
2022/07/05 04:52:02;;;;;;;;;;;14.40;99.90;;;;;;5074144;28;19912;-73
2022/07/05 04:54:28;;;;;;;;;;;14.30;99.90;;;;;;5073344;28;19910;-73
2022/07/05 04:56:53;;;;;;;;;;;14.40;99.90;;;;;;5073973;28;19912;-74
2022/07/05 04:59:19;;;;;;;;;;;14.40;99.90;;;;;;5073499;28;19908;-74
2022/07/05 05:01:44;;;;;;;;;;;14.40;99.90;;;;;;5073761;28;19911;-74
2022/07/05 05:04:10;;;;;;;;;;;14.40;99.90;;;;;;5073927;28;19928;-74
2022/07/05 05:06:36;;;;;;;;;;;14.40;99.90;;;;;;5073242;28;19904;-74
2022/07/05 05:09:02;;;;;;;;;;;14.50;99.90;;;;;;5073861;28;19904;-74
2022/07/05 05:11:27;;;;;;;;;;;14.40;99.90;;;;;;5072985;28;19908;-74
2022/07/05 05:13:53;;;;;;;;;;;14.40;99.90;;;;;;5073745;28;19904;-74
2022/07/05 05:16:19;;;;;;;;;;;14.50;99.90;;;;;;5072961;28;19952;-74
2022/07/05 05:18:44;;;;;;;;;;;14.50;99.90;;;;;;5073405;28;19904;-74
2022/07/05 05:21:10;;;;;;;;;;;14.60;99.90;;;;;;5073586;28;20404;-74
2022/07/05 05:23:35;;;;;;;;;;;14.60;99.90;;;;;;5072873;28;19911;-74
2022/07/05 05:26:01;;;;;;;;;;;14.60;99.90;;;;;;5073311;28;19904;-74
2022/07/05 05:28:26;;;;;;;;;;;14.60;99.90;;;;;;5072904;28;19911;-74
2022/07/05 05:30:52;;;;;;;;;;;14.70;99.90;;;;;;5055449;28;19935;-74
2022/07/05 05:33:17;;;;;;;;;;;14.80;99.90;;;;;;5072325;28;19917;-74
2022/07/05 05:35:43;;;;;;;;;;;14.80;99.90;;;;;;5072962;28;20258;-74
2022/07/05 05:38:09;;;;;;;;;;;14.80;99.90;;;;;;5073016;28;19904;-73
2022/07/05 05:40:37;;;;;;;;;;;14.90;99.90;;;;;;5072654;28;19936;-74
2022/07/05 05:43:03;;;;;;;;;;;14.90;99.90;;;;;;5073171;28;19908;-74
2022/07/05 05:45:28;;;;;;;;;;;14.90;99.90;;;;;;5072543;28;20316;-74
2022/07/05 05:47:58;;;;;;;;;;;15.00;99.90;;;;;;5073098;28;19904;-74
2022/07/05 05:50:24;;;;;;;;;;;15.00;99.90;;;;;;5072384;28;19904;-74
2022/07/05 05:52:50;;;;;;;;;;;15.00;99.90;;;;;;5072500;28;20457;-74
2022/07/05 05:55:16;;;;;;;;;;;15.10;99.90;;;;;;5054550;28;20007;-74
2022/07/05 05:57:42;;;;;;;;;;;15.10;99.90;;;;;;5072900;28;19905;-74
2022/07/05 06:00:08;;;;;;;;;;;15.10;99.90;;;;;;5072672;28;20082;-74
2022/07/05 06:02:34;;;;;;;;;;;15.10;99.90;;;;;;5072582;28;20736;-74
2022/07/05 06:04:59;;;;;;;;;;;15.10;99.90;;;;;;5073209;28;20004;-74
2022/07/05 06:07:25;;;;;;;;;;;15.10;99.90;;;;;;5071986;28;19904;-74
2022/07/05 06:09:50;;;;;;;;;;;15.20;99.90;;;;;;5072530;28;19911;-74
2022/07/05 06:12:16;;;;;;;;;;;15.20;99.90;;;;;;5072234;28;19920;-74
2022/07/05 06:14:42;;;;;;;;;;;15.30;99.90;;;;;;5072600;28;19905;-74
2022/07/05 06:17:07;;;;;;;;;;;15.30;99.90;;;;;;5073020;28;19911;-74
2022/07/05 06:19:33;;;;;;;;;;;15.30;99.90;;;;;;5072192;28;20366;-74
2022/07/05 06:21:58;;;;;;;;;;;15.40;99.90;;;;;;5072670;28;19908;-74
2022/07/05 06:24:24;;;;;;;;;;;15.50;99.90;;;;;;5072107;28;19904;-74
2022/07/05 06:26:49;;;;;;;;;;;15.40;99.90;;;;;;5072765;28;19905;-74
2022/07/05 06:29:15;;;;;;;;;;;15.50;99.90;;;;;;5072705;28;19905;-74
2022/07/05 06:31:40;;;;;;;;;;;15.40;99.90;;;;;;5071991;28;19995;-74
2022/07/05 06:34:06;;;;;;;;;;;15.40;99.90;;;;;;5072359;28;19904;-74
2022/07/05 06:36:31;;;;;;;;;;;15.40;99.90;;;;;;5071883;28;19904;-74
2022/07/05 06:38:57;;;;;;;;;;;15.40;99.90;;;;;;5072475;28;20446;-74
2022/07/05 06:41:23;;;;;;;;;;;15.40;99.90;;;;;;5071906;28;19911;-74
2022/07/05 06:43:48;;;;;;;;;;;15.40;99.90;;;;;;5072476;28;19908;-73
2022/07/05 06:46:14;;;;;;;;;;;15.40;99.90;;;;;;5073399;28;19939;-74
2022/07/05 06:48:39;;;;;;;;;;;15.40;99.90;;;;;;5075617;28;19908;-74
2022/07/05 06:51:06;;;;;;;;;;;15.40;99.90;;;;;;5076437;28;20346;-74
2022/07/05 06:53:31;;;;;;;;;;;15.40;99.90;;;;;;5075654;28;19913;-74
2022/07/05 06:55:57;;;;;;;;;;;15.40;99.90;;;;;;5076016;28;20045;-74
2022/07/05 06:58:23;;;;;;;;;;;15.40;99.90;;;;;;5075405;28;20272;-74
2022/07/05 07:00:48;;;;;;;;;;;15.40;99.90;;;;;;5075115;28;19908;-73
2022/07/05 07:03:14;;;;;;;;;;;15.40;99.90;;;;;;5076354;28;19911;-74
2022/07/05 07:05:40;;;;;;;;;;;15.40;99.90;;;;;;5075187;28;19904;-74
2022/07/05 07:10:50;;;;;;;;;;;15.50;99.90;;;;;;5075159;28;20365;-74
2022/07/05 07:13:15;;;;;;;;;;;15.60;99.90;;;;;;5057467;28;19913;-74
2022/07/05 07:15:41;;;;;;;;;;;15.60;99.90;;;;;;5075039;28;19915;-74
2022/07/05 07:18:06;;;;;;;;;;;15.60;99.90;;;;;;5075639;28;19904;-74
2022/07/05 07:20:32;;;;;;;;;;;15.70;99.90;;;;;;5074709;28;19904;-74
2022/07/05 07:22:58;;;;;;;;;;;15.80;99.90;;;;;;5075733;28;19909;-74
2022/07/05 07:25:23;;;;;;;;;;;15.90;99.90;;;;;;5074977;28;19911;-75
2022/07/05 07:27:50;;;;;;;;;;;15.90;99.90;;;;;;5075641;28;19908;-73
2022/07/05 07:30:18;;;;;;;;;;;16.00;99.90;;;;;;5075337;28;20359;-74
2022/07/05 07:32:44;;;;;;;;;;;16.20;99.90;;;;;;5074806;28;19912;-75
2022/07/05 07:35:10;;;;;;;;;;;16.20;99.90;;;;;;5075420;28;19904;-75
2022/07/05 07:37:37;;;;;;;;;;;16.30;99.90;;;;;;5074816;28;19904;-75
2022/07/05 07:40:03;;;;;;;;;;;16.40;99.90;;;;;;5075676;28;19938;-75
2022/07/05 07:42:29;;;;;;;;;;;16.50;99.90;;;;;;5074684;28;20366;-76
2022/07/05 07:44:54;;;;;;;;;;;16.50;99.90;;;;;;5075375;28;19943;-75
2022/07/05 07:47:20;;;;;;;;;;;16.60;99.90;;;;;;5075376;28;20000;-76
2022/07/05 07:49:46;;;;;;;;;;;16.60;99.90;;;;;;5074644;28;20291;-75
2022/07/05 07:52:12;;;;;;;;;;;16.60;99.90;;;;;;5075396;28;19919;-75
2022/07/05 07:54:37;;;;;;;;;;;16.70;99.90;;;;;;5074645;28;20385;-75
2022/07/05 07:57:04;;;;;;;;;;;16.70;99.90;;;;;;5074421;28;20290;-75
2022/07/05 07:59:33;;;;;;;;;;;16.70;99.90;;;;;;5074540;28;19916;-75
2022/07/05 08:01:58;;;;;;;;;;;16.80;99.90;;;;;;5075043;28;19969;-73
2022/07/05 08:04:24;;;;;;;;;;;16.80;99.90;;;;;;5074514;28;20355;-74
2022/07/05 08:06:50;;;;;;;;;;;16.90;99.90;;;;;;5075318;28;19904;-75
2022/07/05 08:09:15;;;;;;;;;;;16.90;99.90;;;;;;5074987;28;19905;-75
2022/07/05 08:11:41;;;;;;;;;;;16.90;99.90;;;;;;5074297;28;19964;-74
2022/07/05 08:14:06;;;;;;;;;;;16.90;99.90;;;;;;5075160;28;19905;-75
2022/07/05 08:16:32;;;;;;;;;;;16.90;99.90;;;;;;5073965;28;20359;-74
2022/07/05 08:21:42;;;;;;;;;;;16.90;99.90;;;;;;5074171;28;19912;-74
2022/07/05 08:24:08;;;;;;;;;;;16.90;99.90;;;;;;5074702;28;20354;-74
2022/07/05 08:26:35;;;;;;;;;;;17.00;99.90;;;;;;5073608;28;19912;-75
2022/07/05 08:29:03;;;;;;;;;;;17.00;99.90;;;;;;5074515;28;19911;-74
2022/07/05 08:31:30;;;;;;;;;;;17.00;99.90;;;;;;5073424;28;19974;-75
2022/07/05 08:33:56;;;;;;;;;;;17.10;99.90;;;;;;5074169;28;20248;-74
2022/07/05 08:36:22;;;;;;;;;;;17.10;99.90;;;;;;5074013;28;19910;-74
2022/07/05 08:38:47;;;;;;;;;;;17.30;99.90;;;;;;5073527;28;19920;-74
2022/07/05 08:41:16;;;;;;;;;;;17.30;99.90;;;;;;5074172;28;19905;-74
2022/07/05 08:43:44;;;;;;;;;;;17.30;99.90;;;;;;5072996;28;19904;-74
2022/07/05 08:46:11;;;;;;;;;;;17.20;99.90;;;;;;5073891;28;19905;-74
2022/07/05 08:48:41;;;;;;;;;;;17.30;99.90;;;;;;5073257;28;20355;-74
2022/07/05 08:51:14;;;;;;;;;;;17.20;99.90;;;;;;5074333;28;19905;-74
2022/07/05 08:53:40;;;;;;;;;;;17.20;99.90;;;;;;5055526;28;19919;-74
2022/07/05 08:56:07;;;;;;;;;;;17.20;99.90;;;;;;5074257;28;19908;-74
2022/07/05 08:58:33;;;;;;;;;;;17.20;99.90;;;;;;5073189;28;20371;-74
2022/07/05 09:00:58;;;;;;;;;;;17.20;99.90;;;;;;5073743;28;19908;-74
2022/07/05 09:03:26;;;;;;;;;;;17.30;99.90;;;;;;5073760;28;19904;-73
2022/07/05 09:05:54;;;;;;;;;;;17.30;99.90;;;;;;5073704;28;19997;-74
2022/07/05 09:08:21;;;;;;;;;;;17.20;99.90;;;;;;5073220;28;19911;-74
2022/07/05 09:10:46;;;;;;;;;;;17.30;99.90;;;;;;5072797;28;20175;-75
2022/07/05 09:13:12;;;;;;;;;;;17.40;99.90;;;;;;5073365;28;19918;-74
2022/07/05 09:15:38;;;;;;;;;;;17.40;99.90;;;;;;5072874;28;19995;-75
2022/07/05 09:18:04;;;;;;;;;;;17.60;99.90;;;;;;5073517;28;19904;-74
2022/07/05 09:20:30;;;;;;;;;;;17.70;99.90;;;;;;5072437;28;19999;-75
2022/07/05 09:22:55;;;;;;;;;;;17.90;99.90;;;;;;5073179;28;19904;-74
2022/07/05 09:25:27;;;;;;;;;;;17.90;99.90;;;;;;5073372;28;19952;-74
2022/07/05 09:28:06;;;;;;;;;;;18.00;99.90;;;;;;5072858;28;19935;-74
2022/07/05 09:30:35;;;;;;;;;;;18.10;99.90;;;;;;5072789;28;20023;-75
2022/07/05 09:33:03;;;;;;;;;;;18.00;99.90;;;;;;5073169;28;19966;-74
2022/07/05 09:35:29;;;;;;;;;;;18.10;99.90;;;;;;5072698;28;19915;-74
2022/07/05 09:37:55;;;;;;;;;;;18.00;99.90;;;;;;5073058;28;19911;-73
2022/07/05 09:40:21;;;;;;;;;;;18.10;99.90;;;;;;5073257;28;19916;-75
2022/07/05 09:42:46;;;;;;;;;;;18.10;99.90;;;;;;5072571;28;19905;-75
2022/07/05 09:45:12;;;;;;;;;;;18.30;99.90;;;;;;5072563;28;20351;-75
2022/07/05 09:47:38;;;;;;;;;;;18.40;99.90;;;;;;5072478;28;20369;-75
2022/07/05 09:50:05;;;;;;;;;;;18.40;99.90;;;;;;5072861;28;19986;-75
2022/07/05 09:52:35;;;;;;;;;;;18.40;99.90;;;;;;5072472;28;19912;-75
2022/07/05 09:55:02;;;;;;;;;;;18.50;99.90;;;;;;5072775;28;19905;-75
2022/07/05 09:57:27;;;;;;;;;;;18.40;99.90;;;;;;5072547;28;19910;-73
2022/07/05 10:00:05;;;;;;;;;;;18.40;99.90;;;;;;5070910;28;19987;-73
2022/07/05 10:02:38;;;;;;;;;;;18.40;99.90;;;;;;5072488;28;20381;-74
2022/07/05 10:05:14;;;;;;;;;;;18.40;99.90;;;;;;5072689;28;20344;-74
2022/07/05 10:07:40;;;;;;;;;;;18.40;99.90;;;;;;5072364;28;19904;-73
2022/07/05 10:10:07;;;;;;;;;;;18.40;99.90;;;;;;5054772;28;19955;-73
2022/07/05 10:12:35;;;;;;;;;;;18.30;99.90;;;;;;5072033;28;19948;-74
2022/07/05 10:15:01;;;;;;;;;;;18.30;99.90;;;;;;5072025;28;19908;-74
2022/07/05 10:17:28;;;;;;;;;;;18.40;99.90;;;;;;5072650;28;19904;-74
2022/07/05 10:19:54;;;;;;;;;;;18.40;99.90;;;;;;5071421;28;19913;-74
2022/07/05 10:22:19;;;;;;;;;;;18.40;99.90;;;;;;5072193;28;19911;-74
2022/07/05 10:24:45;;;;;;;;;;;18.30;99.90;;;;;;5071685;28;19904;-73
2022/07/05 10:27:12;;;;;;;;;;;18.30;99.90;;;;;;5072119;28;19948;-74
2022/07/05 10:29:38;;;;;;;;;;;18.30;99.90;;;;;;5071108;28;19904;-74
2022/07/05 10:32:06;;;;;;;;;;;18.50;99.90;;;;;;5072082;28;19923;-73
2022/07/05 10:34:32;;;;;;;;;;;18.50;99.90;;;;;;5071598;28;20385;-74
2022/07/05 10:36:58;;;;;;;;;;;18.50;99.90;;;;;;5071680;28;19916;-74
2022/07/05 10:39:25;;;;;;;;;;;18.50;99.90;;;;;;5072018;28;20376;-74
2022/07/05 10:41:52;;;;;;;;;;;18.50;99.90;;;;;;5071125;28;19945;-74
2022/07/05 10:44:31;;;;;;;;;;;18.50;99.90;;;;;;5071768;28;19908;-74
2022/07/05 10:47:10;;;;;;;;;;;18.40;99.90;;;;;;5071379;28;19904;-74
2022/07/05 10:49:36;;;;;;;;;;;18.40;99.90;;;;;;5071536;28;19961;-74
2022/07/05 10:52:02;;;;;;;;;;;18.30;99.90;;;;;;5071831;28;19920;-74
2022/07/05 10:54:28;;;;;;;;;;;18.30;99.90;;;;;;5071786;28;20214;-74
2022/07/05 10:57:12;;;;;;;;;;;18.20;99.90;;;;;;5071247;28;19950;-74
2022/07/05 10:59:56;;;;;;;;;;;18.20;99.90;;;;;;5071079;28;20359;-74
2022/07/05 11:02:22;;;;;;;;;;;18.10;99.90;;;;;;5071492;28;19949;-74
2022/07/05 11:04:54;;;;;;;;;;;18.10;99.90;;;;;;5071090;28;19904;-74
2022/07/05 11:07:39;;;;;;;;;;;18.00;99.90;;;;;;5072233;28;19904;-73
2022/07/05 11:10:06;;;;;;;;;;;18.00;99.90;;;;;;5072104;28;20335;-74
2022/07/05 11:12:36;;;;;;;;;;;18.00;99.90;;;;;;5071761;28;19912;-74
2022/07/05 11:15:06;;;;;;;;;;;18.10;99.90;;;;;;5072353;28;19912;-74
2022/07/05 11:17:34;;;;;;;;;;;18.10;99.90;;;;;;5071627;28;20053;-74
2022/07/05 11:20:11;;;;;;;;;;;18.10;99.90;;;;;;5054407;28;20369;-74
2022/07/05 11:22:57;;;;;;;;;;;18.10;99.90;;;;;;5071558;28;19912;-74
2022/07/05 11:25:22;;;;;;;;;;;18.20;99.90;;;;;;5057302;28;19908;-74
2022/07/05 11:28:23;;;;;;;;;;;18.20;99.90;;;;;;5071474;28;20378;-74
2022/07/05 11:30:56;;;;;;;;;;;18.20;99.90;;;;;;5027966;28;19909;-74
2022/07/05 11:33:58;;;;;;;;;;;18.20;99.90;;;;;;5074469;28;19912;-73
2022/07/05 11:36:26;;;;;;;;;;;18.20;99.90;;;;;;4993891;28;19916;-74
2022/07/05 11:39:15;;;;;;;;;;;18.20;99.90;;;;;;5059464;28;19920;-74
2022/07/05 11:41:45;;;;;;;;;;;18.20;99.90;;;;;;5074827;28;19937;-74
2022/07/05 11:44:11;;;;;;;;;;;18.30;99.90;;;;;;5075434;28;19948;-74
2022/07/05 11:46:37;;;;;;;;;;;18.50;99.90;;;;;;5074602;28;19904;-74
2022/07/05 11:49:03;;;;;;;;;;;18.60;99.90;;;;;;5074978;28;19904;-74
2022/07/05 11:51:28;;;;;;;;;;;18.80;99.90;;;;;;5057247;28;19916;-74
2022/07/05 11:53:54;;;;;;;;;;;19.00;99.90;;;;;;5074650;28;19909;-74
2022/07/05 11:56:20;;;;;;;;;;;19.10;99.90;;;;;;5075215;28;19939;-74
2022/07/05 11:58:45;;;;;;;;;;;19.20;99.90;;;;;;5074559;28;19908;-74
2022/07/05 12:01:11;;;;;;;;;;;19.30;99.90;;;;;;5075122;28;19905;-74
2022/07/05 12:03:39;;;;;;;;;;;19.40;99.90;;;;;;5074500;28;19923;-74
2022/07/05 12:06:11;;;;;;;;;;;19.60;99.90;;;;;;5074853;28;19904;-73
2022/07/05 12:08:37;;;;;;;;;;;19.70;99.90;;;;;;5074378;28;19999;-74
2022/07/05 12:13:47;;;;;;;;;;;19.80;99.90;;;;;;5074240;28;20325;-74
2022/07/05 12:16:13;;;;;;;;;;;19.90;99.90;;;;;;5074030;28;19927;-74
2022/07/05 12:18:51;;;;;;;;;;;19.90;99.90;;;;;;5073462;28;20398;-75
2022/07/05 12:21:17;;;;;;;;;;;19.80;99.90;;;;;;5074351;28;19904;-74
2022/07/05 12:23:44;;;;;;;;;;;19.90;99.90;;;;;;5073548;28;20351;-74
2022/07/05 12:26:11;;;;;;;;;;;19.90;99.90;;;;;;5073784;28;20002;-74
2022/07/05 12:28:37;;;;;;;;;;;20.00;99.90;;;;;;5073517;28;19991;-75
2022/07/05 12:31:24;;;;;;;;;;;20.10;99.90;;;;;;5074260;28;19992;-74
2022/07/05 12:33:50;;;;;;;;;;;20.20;99.90;;;;;;5073542;28;20010;-74
2022/07/05 12:36:17;;;;;;;;;;;20.10;99.90;;;;;;5073901;28;19904;-74
2022/07/05 12:38:43;;;;;;;;;;;20.10;99.90;;;;;;5072944;28;20351;-74
2022/07/05 12:41:10;;;;;;;;;;;20.20;99.90;;;;;;5073554;28;20385;-74
2022/07/05 12:43:50;;;;;;;;;;;20.40;99.90;;;;;;5073068;28;19915;-74
2022/07/05 12:46:15;;;;;;;;;;;20.50;99.90;;;;;;5073614;28;19904;-74
2022/07/05 12:48:41;;;;;;;;;;;20.60;99.90;;;;;;5072836;28;19999;-74
2022/07/05 12:51:07;;;;;;;;;;;20.70;99.90;;;;;;5055823;28;19905;-75
2022/07/05 12:59:08;;;;;;;;;;;21.00;99.90;;;;;;5073691;28;19997;-74
2022/07/05 13:01:37;;;;;;;;;;;20.90;99.90;;;;;;5073217;28;20043;-74
2022/07/05 13:04:05;;;;;;;;;;;20.90;99.90;;;;;;5073264;28;19904;-75
2022/07/05 13:06:50;;;;;;;;;;;20.80;99.90;;;;;;5073331;28;19999;-74
2022/07/05 13:09:28;;;;;;;;;;;20.80;99.90;;;;;;5073715;28;19958;-74
2022/07/05 13:12:12;;;;;;;;;;;20.80;99.90;;;;;;5073113;28;19987;-75
2022/07/05 13:15:04;;;;;;;;;;;21.00;99.90;;;;;;5073759;28;19908;-75
2022/07/05 13:17:29;;;;;;;;;;;21.00;99.90;;;;;;5052405;28;19957;-75
2022/07/05 13:19:55;;;;;;;;;;;21.10;99.90;;;;;;5072926;28;19908;-75
2022/07/05 13:22:20;;;;;;;;;;;21.10;99.90;;;;;;5073669;28;19904;-75
2022/07/05 13:24:46;;;;;;;;;;;21.10;99.90;;;;;;5072931;28;19997;-75
2022/07/05 13:27:12;;;;;;;;;;;21.10;99.90;;;;;;5073556;28;19904;-75
2022/07/05 13:29:38;;;;;;;;;;;21.00;99.90;;;;;;5073187;28;19904;-75
2022/07/05 13:32:04;;;;;;;;;;;21.00;99.90;;;;;;5073116;28;20258;-75
2022/07/05 13:34:29;;;;;;;;;;;21.00;99.90;;;;;;5055306;28;19947;-75
2022/07/05 13:36:56;;;;;;;;;;;21.00;99.90;;;;;;5072407;28;19912;-75
2022/07/05 13:39:22;;;;;;;;;;;21.00;99.90;;;;;;5054925;28;19978;-75
2022/07/05 13:41:49;;;;;;;;;;;20.90;99.90;;;;;;5072532;28;19959;-75
2022/07/05 13:44:14;;;;;;;;;;;21.00;99.90;;;;;;5073235;28;19928;-75
2022/07/05 13:46:40;;;;;;;;;;;21.10;99.90;;;;;;5072705;28;20343;-75
2022/07/05 13:49:05;;;;;;;;;;;21.20;99.90;;;;;;5072182;28;19908;-75
2022/07/05 13:51:31;;;;;;;;;;;21.20;99.90;;;;;;5073023;28;19952;-75
2022/07/05 13:53:56;;;;;;;;;;;21.20;99.90;;;;;;5072334;28;19916;-75
2022/07/05 13:56:22;;;;;;;;;;;21.20;99.90;;;;;;5072155;28;19908;-75
2022/07/05 13:58:48;;;;;;;;;;;21.00;99.90;;;;;;5071387;28;19942;-75
2022/07/05 14:01:13;;;;;;;;;;;21.00;99.90;;;;;;5072515;28;19996;-75
2022/07/05 14:03:39;;;;;;;;;;;20.90;99.90;;;;;;5072164;28;19911;-75
2022/07/05 14:06:05;;;;;;;;;;;20.80;99.90;;;;;;5071852;28;19905;-75
2022/07/05 14:08:30;;;;;;;;;;;20.70;99.90;;;;;;5072411;28;20360;-75
2022/07/05 14:10:57;;;;;;;;;;;20.60;99.90;;;;;;5071959;28;19908;-75
2022/07/05 14:13:23;;;;;;;;;;;20.60;99.90;;;;;;5072171;28;19914;-75
2022/07/05 14:15:49;;;;;;;;;;;20.60;99.90;;;;;;5071744;28;19912;-75
2022/07/05 14:18:15;;;;;;;;;;;20.90;99.90;;;;;;5072205;28;19908;-75
2022/07/05 14:20:44;;;;;;;;;;;21.20;99.90;;;;;;5071427;28;19911;-75
2022/07/05 14:23:10;;;;;;;;;;;21.40;99.90;;;;;;5072268;28;19943;-75
2022/07/05 14:25:36;;;;;;;;;;;21.60;99.90;;;;;;5053804;28;19962;-75
2022/07/05 14:28:06;;;;;;;;;;;21.70;99.90;;;;;;5071547;28;19912;-75